createdAt,value
2018-12-23T00:00:43.862Z,60.48
2018-12-23T00:03:12.559Z,60.50
2018-12-23T00:05:41.125Z,60.64
2018-12-23T00:08:09.681Z,60.64
2018-12-23T00:10:38.164Z,60.52
2018-12-23T00:13:06.648Z,60.29
2018-12-23T00:15:35.162Z,60.65
2018-12-23T00:18:03.679Z,60.74
2018-12-23T00:20:32.276Z,60.86
2018-12-23T00:23:00.799Z,61.07
2018-12-23T00:25:29.296Z,60.83
2018-12-23T00:27:57.813Z,60.63
2018-12-23T00:30:26.436Z,60.89
2018-12-23T00:32:54.933Z,60.81
2018-12-23T00:35:23.393Z,61.01
2018-12-23T00:37:51.901Z,61.10
2018-12-23T00:40:20.444Z,61.16
2018-12-23T00:42:48.930Z,61.00
2018-12-23T00:45:17.472Z,60.91
2018-12-23T00:47:45.957Z,60.94
2018-12-23T00:50:14.474Z,61.00
2018-12-23T00:52:43.035Z,61.24
2018-12-23T00:55:11.565Z,61.03
2018-12-23T00:57:40.180Z,61.04
2018-12-23T01:00:09.513Z,60.64
2018-12-23T01:02:37.999Z,61.25
2018-12-23T01:05:07.257Z,60.81
2018-12-23T01:07:35.785Z,60.63
2018-12-23T01:10:04.565Z,61.01
2018-12-23T01:12:33.124Z,60.88
2018-12-23T01:15:01.642Z,61.31
2018-12-23T01:17:30.243Z,61.12
2018-12-23T01:19:58.741Z,61.32
2018-12-23T01:22:27.254Z,61.05
2018-12-23T01:24:55.770Z,61.19
2018-12-23T01:27:24.251Z,61.20
2018-12-23T01:29:52.762Z,61.20
2018-12-23T01:32:21.296Z,61.54
2018-12-23T01:34:49.796Z,61.13
2018-12-23T01:37:18.319Z,61.55
2018-12-23T01:39:46.846Z,61.40
2018-12-23T01:42:15.365Z,61.36
2018-12-23T01:44:43.880Z,61.47
2018-12-23T01:47:12.403Z,61.70
2018-12-23T01:49:40.892Z,61.36
2018-12-23T01:52:09.470Z,61.23
2018-12-23T01:54:37.969Z,61.53
2018-12-23T01:57:06.513Z,61.27
2018-12-23T01:59:35.065Z,61.64
2018-12-23T02:02:03.568Z,61.81
2018-12-23T02:04:32.054Z,61.31
2018-12-23T02:07:00.556Z,61.30
2018-12-23T02:09:29.066Z,61.45
2018-12-23T02:11:57.610Z,61.44
2018-12-23T02:14:26.126Z,61.47
2018-12-23T02:16:54.673Z,61.26
2018-12-23T02:19:23.167Z,61.89
2018-12-23T02:21:51.719Z,61.23
2018-12-23T02:24:20.190Z,61.24
2018-12-23T02:26:56.480Z,61.40
2018-12-23T02:29:24.938Z,61.52
2018-12-23T02:31:53.425Z,61.53
2018-12-23T02:34:21.918Z,61.65
2018-12-23T02:36:50.436Z,61.79
2018-12-23T02:39:18.948Z,61.27
2018-12-23T02:41:47.529Z,61.52
2018-12-23T02:44:15.998Z,61.53
2018-12-23T02:46:44.521Z,61.56
2018-12-23T02:49:13.124Z,61.66
2018-12-23T02:51:41.613Z,61.57
2018-12-23T02:54:10.128Z,61.66
2018-12-23T02:56:38.770Z,61.34
2018-12-23T02:59:07.353Z,61.44
2018-12-23T03:01:35.841Z,61.71
2018-12-23T03:04:04.416Z,61.74
2018-12-23T03:06:32.908Z,61.74
2018-12-23T03:09:01.457Z,62.03
2018-12-23T03:11:29.997Z,61.70
2018-12-23T03:13:58.512Z,61.86
2018-12-23T03:16:27.065Z,61.73
2018-12-23T03:18:55.609Z,61.70
2018-12-23T03:21:24.097Z,61.82
2018-12-23T03:23:52.554Z,62.06
2018-12-23T03:26:21.028Z,61.96
2018-12-23T03:28:49.500Z,61.72
2018-12-23T03:31:18.060Z,61.95
2018-12-23T03:33:46.625Z,61.87
2018-12-23T03:36:33.194Z,62.23
2018-12-23T03:39:01.709Z,62.00
2018-12-23T03:41:30.231Z,61.91
2018-12-23T03:43:58.810Z,62.43
2018-12-23T03:46:27.291Z,61.88
2018-12-23T03:48:55.844Z,62.17
2018-12-23T03:51:24.304Z,62.31
2018-12-23T03:53:52.807Z,62.53
2018-12-23T03:56:21.279Z,62.17
2018-12-23T03:58:49.757Z,62.58
2018-12-23T04:01:18.452Z,62.02
2018-12-23T04:03:46.919Z,62.18
2018-12-23T04:06:24.271Z,62.04
2018-12-23T04:08:45.938Z,62.05
2018-12-23T04:11:14.398Z,62.60
2018-12-23T04:13:43.050Z,62.32
2018-12-23T04:16:11.556Z,62.33
2018-12-23T04:18:40.106Z,62.49
2018-12-23T04:21:08.620Z,62.35
2018-12-23T04:23:37.147Z,62.15
2018-12-23T04:26:05.622Z,62.08
2018-12-23T04:28:34.131Z,62.29
2018-12-23T04:31:02.639Z,62.10
2018-12-23T04:33:31.120Z,62.29
2018-12-23T04:35:59.612Z,62.46
2018-12-23T04:38:28.137Z,62.36
2018-12-23T04:40:56.651Z,62.11
2018-12-23T04:43:25.179Z,62.38
2018-12-23T04:45:53.723Z,62.27
2018-12-23T04:48:22.256Z,62.35
2018-12-23T04:50:50.776Z,61.99
2018-12-23T04:53:19.327Z,62.42
2018-12-23T04:55:47.883Z,62.21
2018-12-23T04:58:16.527Z,62.52
2018-12-23T05:00:45.073Z,62.25
2018-12-23T05:03:13.561Z,62.39
2018-12-23T05:05:42.073Z,62.28
2018-12-23T05:08:10.621Z,62.45
2018-12-23T05:10:39.142Z,62.57
2018-12-23T05:13:07.701Z,62.55
2018-12-23T05:15:36.204Z,62.70
2018-12-23T05:18:04.713Z,62.88
2018-12-23T05:20:33.296Z,62.30
2018-12-23T05:23:01.881Z,62.28
2018-12-23T05:25:30.389Z,62.99
2018-12-23T05:27:58.888Z,62.51
2018-12-23T05:30:27.480Z,62.45
2018-12-23T05:32:56.044Z,62.28
2018-12-23T05:35:24.623Z,62.32
2018-12-23T05:37:53.231Z,62.44
2018-12-23T05:40:21.694Z,62.41
2018-12-23T05:42:50.220Z,62.51
2018-12-23T05:45:18.754Z,62.67
2018-12-23T05:47:47.236Z,62.51
2018-12-23T05:50:15.792Z,62.08
2018-12-23T05:52:44.270Z,62.49
2018-12-23T05:55:12.777Z,62.39
2018-12-23T05:57:41.289Z,62.43
2018-12-23T06:00:09.796Z,62.14
2018-12-23T06:02:38.282Z,62.02
2018-12-23T06:05:06.818Z,62.38
2018-12-23T06:07:35.312Z,62.37
2018-12-23T06:10:03.821Z,62.15
2018-12-23T06:12:32.314Z,62.05
2018-12-23T06:15:00.855Z,62.16
2018-12-23T06:17:29.334Z,61.82
2018-12-23T06:19:57.857Z,62.17
2018-12-23T06:22:26.302Z,62.02
2018-12-23T06:24:54.859Z,61.96
2018-12-23T06:27:23.396Z,62.15
2018-12-23T06:29:51.995Z,61.88
2018-12-23T06:32:20.470Z,62.14
2018-12-23T06:34:48.947Z,62.37
2018-12-23T06:37:17.508Z,62.12
2018-12-23T06:39:46.021Z,62.10
2018-12-23T06:42:14.601Z,62.25
2018-12-23T06:44:43.101Z,62.19
2018-12-23T06:47:11.674Z,62.00
2018-12-23T06:49:40.179Z,61.87
2018-12-23T06:52:08.683Z,62.19
2018-12-23T06:54:37.161Z,61.83
2018-12-23T06:57:05.641Z,62.26
2018-12-23T06:59:34.191Z,61.99
2018-12-23T07:02:02.687Z,61.65
2018-12-23T07:04:31.277Z,62.20
2018-12-23T07:06:59.797Z,62.20
2018-12-23T07:09:28.381Z,61.99
2018-12-23T07:11:56.924Z,62.22
2018-12-23T07:14:25.407Z,61.93
2018-12-23T07:16:53.827Z,62.30
2018-12-23T07:19:22.405Z,62.42
2018-12-23T07:21:50.920Z,61.88
2018-12-23T07:24:20.452Z,62.08
2018-12-23T07:26:48.958Z,62.09
2018-12-23T07:29:17.437Z,62.33
2018-12-23T07:31:45.910Z,62.38
2018-12-23T07:34:14.441Z,62.15
2018-12-23T07:36:49.493Z,61.83
2018-12-23T07:39:13.464Z,62.26
2018-12-23T07:41:41.928Z,62.05
2018-12-23T07:44:10.420Z,62.04
2018-12-23T07:46:38.913Z,61.79
2018-12-23T07:49:07.422Z,62.18
2018-12-23T07:51:35.876Z,62.08
2018-12-23T07:54:04.344Z,61.90
2018-12-23T07:56:32.777Z,61.91
2018-12-23T07:59:01.316Z,61.74
2018-12-23T08:01:29.760Z,61.90
2018-12-23T08:03:58.227Z,61.55
2018-12-23T08:06:26.829Z,62.03
2018-12-23T08:08:55.344Z,62.17
2018-12-23T08:11:23.861Z,62.06
2018-12-23T08:13:52.390Z,61.34
2018-12-23T08:16:20.911Z,61.86
2018-12-23T08:18:49.572Z,61.55
2018-12-23T08:21:18.047Z,61.30
2018-12-23T08:23:46.556Z,61.44
2018-12-23T08:26:15.101Z,61.47
2018-12-23T08:31:43.165Z,61.31
2018-12-23T08:34:11.680Z,61.65
2018-12-23T08:36:40.234Z,61.43
2018-12-23T08:39:08.768Z,61.57
2018-12-23T08:41:37.434Z,61.33
2018-12-23T08:44:05.998Z,61.17
2018-12-23T08:46:39.179Z,61.08
2018-12-23T08:49:05.142Z,60.97
2018-12-23T08:51:33.696Z,60.44
2018-12-23T08:54:02.240Z,60.40
2018-12-23T08:56:30.830Z,60.67
2018-12-23T08:58:59.389Z,60.61
2018-12-23T09:01:27.919Z,60.88
2018-12-23T09:03:56.486Z,60.92
2018-12-23T09:06:25.058Z,60.25
2018-12-23T09:08:53.569Z,60.34
2018-12-23T09:11:22.074Z,60.73
2018-12-23T09:13:50.724Z,60.26
2018-12-23T09:16:19.220Z,60.09
2018-12-23T09:18:47.718Z,59.95
2018-12-23T09:21:16.337Z,60.11
2018-12-23T09:23:44.936Z,59.76
2018-12-23T09:26:13.493Z,60.48
2018-12-23T09:28:42.043Z,59.81
2018-12-23T09:31:10.634Z,60.32
2018-12-23T09:33:39.138Z,59.62
2018-12-23T09:36:07.703Z,59.95
2018-12-23T09:38:54.158Z,59.68
2018-12-23T09:41:22.678Z,60.10
2018-12-23T09:43:51.194Z,60.06
2018-12-23T09:46:19.699Z,59.72
2018-12-23T09:48:58.325Z,59.71
2018-12-23T09:51:26.938Z,59.92
2018-12-23T09:53:55.497Z,60.05
2018-12-23T09:56:23.990Z,59.91
2018-12-23T09:58:52.555Z,59.74
2018-12-23T10:01:21.138Z,59.81
2018-12-23T10:03:49.613Z,59.47
2018-12-23T10:06:18.144Z,59.97
2018-12-23T10:08:46.702Z,59.65
2018-12-23T10:11:15.242Z,59.56
2018-12-23T10:13:43.983Z,59.25
2018-12-23T10:16:12.511Z,59.26
2018-12-23T10:18:41.037Z,59.54
2018-12-23T10:21:10.229Z,59.40
2018-12-23T10:23:39.078Z,59.14
2018-12-23T10:26:07.586Z,59.39
2018-12-23T10:28:36.217Z,59.56
2018-12-23T10:31:04.761Z,59.10
2018-12-23T10:33:33.272Z,58.86
2018-12-23T10:36:01.782Z,58.88
2018-12-23T10:38:30.329Z,59.36
2018-12-23T10:40:58.869Z,58.80
2018-12-23T10:43:27.391Z,58.63
2018-12-23T10:45:55.832Z,59.30
2018-12-23T10:48:24.309Z,58.95
2018-12-23T10:50:52.872Z,58.69
2018-12-23T10:53:27.207Z,58.76
2018-12-23T10:55:56.072Z,58.45
2018-12-23T10:58:24.570Z,58.82
2018-12-23T11:00:53.060Z,58.58
2018-12-23T11:03:21.546Z,58.38
2018-12-23T11:06:21.903Z,59.24
2018-12-23T11:08:51.593Z,59.10
2018-12-23T11:11:21.164Z,59.09
2018-12-23T11:13:50.640Z,59.20
2018-12-23T11:16:20.247Z,59.21
2018-12-23T11:18:49.735Z,59.29
2018-12-23T11:21:19.238Z,59.62
2018-12-23T11:23:48.746Z,60.09
2018-12-23T11:26:18.294Z,60.40
2018-12-23T11:28:47.776Z,60.49
2018-12-23T11:31:17.452Z,60.69
2018-12-23T11:33:46.982Z,60.93
2018-12-23T11:36:16.503Z,61.10
2018-12-23T11:38:45.991Z,61.12
2018-12-23T11:41:15.522Z,61.02
2018-12-23T11:43:45.017Z,61.03
2018-12-23T11:46:14.506Z,61.12
2018-12-23T11:48:44.080Z,61.06
2018-12-23T11:51:13.553Z,60.90
2018-12-23T11:53:43.083Z,60.90
2018-12-23T11:56:12.703Z,60.95
2018-12-23T11:58:42.321Z,61.05
2018-12-23T12:01:11.857Z,61.28
2018-12-23T12:03:41.390Z,61.36
2018-12-23T12:06:10.995Z,61.27
2018-12-23T12:08:43.891Z,61.29
2018-12-23T12:11:11.927Z,61.21
2018-12-23T12:13:41.448Z,60.60
2018-12-23T12:16:10.975Z,60.83
2018-12-23T12:18:40.560Z,60.55
2018-12-23T12:21:10.027Z,60.63
2018-12-23T12:23:39.561Z,60.55
2018-12-23T12:26:09.078Z,60.75
2018-12-23T12:28:38.770Z,60.91
2018-12-23T12:31:08.238Z,60.93
2018-12-23T12:33:37.783Z,60.99
2018-12-23T12:36:07.242Z,60.95
2018-12-23T12:38:36.780Z,61.12
2018-12-23T12:41:06.320Z,61.18
2018-12-23T12:43:35.804Z,61.20
2018-12-23T12:46:05.286Z,61.23
2018-12-23T12:48:34.836Z,61.33
2018-12-23T12:51:04.386Z,61.32
2018-12-23T12:53:33.884Z,61.36
2018-12-23T12:56:03.394Z,61.42
2018-12-23T12:58:32.875Z,61.38
2018-12-23T13:01:02.410Z,61.36
2018-12-23T13:03:31.912Z,61.32
2018-12-23T13:06:01.582Z,61.40
2018-12-23T13:08:31.129Z,61.46
2018-12-23T13:11:00.641Z,61.45
2018-12-23T13:13:30.250Z,61.38
2018-12-23T13:15:59.746Z,61.28
2018-12-23T13:18:29.284Z,61.16
2018-12-23T13:20:58.869Z,61.21
2018-12-23T13:23:28.435Z,61.27
2018-12-23T13:25:57.960Z,61.19
2018-12-23T13:28:27.560Z,61.10
2018-12-23T13:30:57.098Z,61.17
2018-12-23T13:33:26.797Z,61.00
2018-12-23T13:35:56.379Z,61.20
2018-12-23T13:38:25.888Z,61.10
2018-12-23T13:41:38.498Z,61.00
2018-12-23T13:44:41.794Z,60.87
2018-12-23T13:47:52.188Z,60.94
2018-12-23T13:50:56.258Z,60.77
2018-12-23T13:53:57.577Z,60.54
2018-12-23T13:57:03.799Z,60.28
2018-12-23T13:59:57.193Z,60.52
2018-12-23T14:03:08.250Z,60.57
2018-12-23T14:06:03.810Z,60.59
2018-12-23T14:09:17.283Z,60.65
2018-12-23T14:11:58.999Z,60.54
2018-12-23T14:14:28.605Z,60.87
2018-12-23T14:16:58.148Z,60.89
2018-12-23T14:19:27.982Z,60.79
2018-12-23T14:21:57.517Z,60.59
2018-12-23T14:24:27.064Z,60.52
2018-12-23T14:26:56.687Z,60.34
2018-12-23T14:29:26.231Z,60.11
2018-12-23T14:31:55.722Z,60.04
2018-12-23T14:34:25.198Z,59.96
2018-12-23T14:36:54.836Z,59.98
2018-12-23T14:39:27.288Z,60.06
2018-12-23T14:41:55.605Z,60.15
2018-12-23T14:44:25.084Z,60.17
2018-12-23T14:46:54.567Z,60.23
2018-12-23T14:49:24.111Z,60.44
2018-12-23T14:51:53.552Z,60.30
2018-12-23T14:54:23.167Z,60.33
2018-12-23T14:56:52.615Z,60.49
2018-12-23T14:59:22.141Z,60.45
2018-12-23T15:01:51.622Z,60.31
2018-12-23T15:04:21.305Z,60.36
2018-12-23T15:06:50.760Z,60.29
2018-12-23T15:09:20.574Z,60.16
2018-12-23T15:11:50.101Z,60.25
2018-12-23T15:14:19.624Z,60.33
2018-12-23T15:16:49.076Z,60.25
2018-12-23T15:19:18.552Z,60.21
2018-12-23T15:21:48.109Z,60.26
2018-12-23T15:24:17.586Z,60.21
2018-12-23T15:26:47.088Z,60.22
2018-12-23T15:29:16.554Z,60.16
2018-12-23T15:31:46.417Z,60.32
2018-12-23T15:34:15.862Z,60.50
2018-12-23T15:36:45.451Z,60.59
2018-12-23T15:39:14.923Z,60.65
2018-12-23T15:41:44.403Z,60.57
2018-12-23T15:44:13.909Z,60.65
2018-12-23T15:46:43.841Z,60.58
2018-12-23T15:49:13.574Z,60.73
2018-12-23T15:52:02.066Z,60.79
2018-12-23T15:54:31.564Z,60.73
2018-12-23T15:57:01.164Z,60.77
2018-12-23T15:59:30.595Z,60.83
2018-12-23T16:02:00.085Z,60.93
2018-12-23T16:04:29.541Z,61.13
2018-12-23T16:06:59.033Z,61.24
2018-12-23T16:09:28.524Z,61.48
2018-12-23T16:11:58.083Z,61.57
2018-12-23T16:14:27.546Z,61.67
2018-12-23T16:16:57.128Z,61.65
2018-12-23T16:19:26.882Z,61.69
2018-12-23T16:21:56.449Z,61.88
2018-12-23T16:24:25.939Z,61.85
2018-12-23T16:26:55.442Z,61.89
2018-12-23T16:29:24.959Z,61.96
2018-12-23T16:34:29.774Z,62.03
2018-12-23T16:36:59.507Z,62.07
2018-12-23T16:39:29.025Z,62.11
2018-12-23T16:41:58.515Z,62.17
2018-12-23T16:44:28.333Z,62.18
2018-12-23T16:46:57.901Z,62.27
2018-12-23T16:49:27.375Z,62.23
2018-12-23T16:51:56.912Z,62.32
2018-12-23T16:54:26.400Z,62.35
2018-12-23T16:56:55.922Z,62.44
2018-12-23T16:59:25.397Z,62.44
2018-12-23T17:01:54.875Z,62.44
2018-12-23T17:04:24.370Z,62.35
2018-12-23T17:06:53.915Z,62.33
2018-12-23T17:09:23.509Z,62.34
2018-12-23T17:14:41.375Z,62.41
2018-12-23T17:17:10.988Z,62.38
2018-12-23T17:19:40.583Z,62.33
2018-12-23T17:22:10.077Z,62.26
2018-12-23T17:24:39.586Z,62.27
2018-12-23T17:27:09.101Z,62.27
2018-12-23T17:29:38.622Z,62.27
2018-12-23T17:32:08.102Z,62.28
2018-12-23T17:34:37.593Z,62.26
2018-12-23T17:37:07.065Z,62.13
2018-12-23T17:39:36.566Z,62.19
2018-12-23T17:42:06.099Z,62.18
2018-12-23T17:44:35.568Z,62.19
2018-12-23T17:47:05.024Z,62.04
2018-12-23T17:49:34.548Z,61.95
2018-12-23T17:52:04.017Z,62.02
2018-12-23T17:54:33.555Z,62.13
2018-12-23T17:57:03.034Z,62.13
2018-12-23T17:59:32.622Z,62.18
2018-12-23T18:02:02.117Z,62.23
2018-12-23T18:04:31.615Z,62.22
2018-12-23T18:07:20.194Z,62.20
2018-12-23T18:09:49.805Z,62.30
2018-12-23T18:12:19.339Z,62.32
2018-12-23T18:14:48.811Z,62.38
2018-12-23T18:17:18.471Z,62.49
2018-12-23T18:19:47.982Z,62.58
2018-12-23T18:22:17.662Z,62.64
2018-12-23T18:24:47.235Z,62.66
2018-12-23T18:27:16.809Z,62.71
2018-12-23T18:29:46.360Z,62.75
2018-12-23T18:32:15.887Z,62.80
2018-12-23T18:34:45.359Z,62.81
2018-12-23T18:37:14.952Z,62.79
2018-12-23T18:39:44.434Z,62.74
2018-12-23T18:42:13.938Z,62.82
2018-12-23T18:44:43.419Z,62.89
2018-12-23T18:47:12.926Z,62.86
2018-12-23T18:49:42.421Z,62.94
2018-12-23T18:52:11.956Z,62.97
2018-12-23T18:54:41.405Z,63.11
2018-12-23T18:57:12.745Z,63.13
2018-12-23T18:59:45.828Z,63.14
2018-12-23T19:02:36.024Z,63.15
2018-12-23T19:05:05.605Z,63.23
2018-12-23T19:07:35.080Z,63.25
2018-12-23T19:10:17.209Z,63.33
2018-12-23T19:13:14.744Z,63.38
2018-12-23T19:16:22.263Z,63.39
2018-12-23T19:19:29.883Z,63.40
2018-12-23T19:22:37.455Z,63.43
2018-12-23T19:25:45.052Z,63.52
2018-12-23T19:28:52.612Z,63.47
2018-12-23T19:31:48.965Z,63.53
2018-12-23T19:34:48.163Z,63.57
2018-12-23T19:37:55.718Z,63.66
2018-12-23T19:41:03.260Z,63.73
2018-12-23T19:44:10.868Z,63.82
2018-12-23T19:47:14.090Z,63.94
2018-12-23T19:50:03.703Z,63.87
2018-12-23T19:53:11.226Z,63.86
2018-12-23T19:56:06.113Z,63.91
2018-12-23T19:59:13.722Z,63.88
2018-12-23T20:02:21.315Z,64.04
2018-12-23T20:05:28.865Z,63.98
2018-12-23T20:08:22.025Z,63.97
2018-12-23T20:11:32.772Z,63.89
2018-12-23T20:14:40.348Z,63.92
2018-12-23T20:17:47.867Z,63.82
2018-12-23T20:20:55.438Z,63.83
2018-12-23T20:27:01.094Z,63.55
2018-12-23T20:30:01.101Z,63.59
2018-12-23T20:36:02.739Z,62.99
2018-12-23T20:39:10.259Z,63.16
2018-12-23T20:42:17.978Z,63.17
2018-12-23T20:45:28.557Z,63.16
2018-12-23T20:48:36.052Z,63.03
2018-12-23T20:51:43.591Z,62.64
2018-12-23T20:54:49.463Z,62.71
2018-12-23T20:57:42.804Z,62.72
2018-12-23T21:00:50.379Z,62.69
2018-12-23T21:03:42.535Z,62.96
2018-12-23T21:06:50.074Z,62.91
2018-12-23T21:10:00.639Z,62.11
2018-12-23T21:13:09.206Z,61.94
2018-12-23T21:16:16.721Z,62.05
2018-12-23T21:19:12.060Z,62.08
2018-12-23T21:22:04.285Z,61.89
2018-12-23T21:25:11.795Z,61.98
2018-12-23T21:28:19.406Z,61.79
2018-12-23T21:31:26.905Z,61.89
2018-12-23T21:34:34.434Z,61.67
2018-12-23T21:37:27.832Z,61.68
2018-12-23T21:40:35.376Z,61.80
2018-12-23T21:43:44.324Z,61.67
2018-12-23T21:46:52.132Z,61.64
2018-12-23T21:49:59.745Z,61.72
2018-12-23T21:53:02.628Z,61.74
2018-12-23T21:56:10.128Z,61.76
2018-12-23T21:59:05.884Z,61.69
2018-12-23T22:09:33.524Z,61.56
2018-12-23T22:12:41.018Z,61.64
2018-12-23T22:15:10.628Z,61.61
2018-12-23T22:17:40.050Z,61.51
2018-12-23T22:20:09.623Z,61.51
2018-12-23T22:22:39.074Z,61.36
2018-12-23T22:25:08.714Z,61.37
2018-12-23T22:27:38.205Z,61.49
2018-12-23T22:30:07.726Z,61.33
2018-12-23T22:32:37.209Z,61.28
2018-12-23T22:35:06.805Z,61.40
2018-12-23T22:37:36.278Z,61.31
2018-12-23T22:40:06.206Z,61.22
2018-12-23T22:42:35.741Z,60.94
2018-12-23T22:45:05.300Z,61.07
2018-12-23T22:47:34.804Z,60.91
2018-12-23T22:50:04.249Z,61.09
2018-12-23T22:52:33.703Z,61.37
2018-12-23T22:55:03.148Z,61.24
2018-12-23T22:57:32.657Z,61.15
2018-12-23T23:00:02.128Z,61.13
2018-12-23T23:02:31.725Z,61.21
2018-12-23T23:05:01.186Z,60.87
2018-12-23T23:07:30.627Z,60.82
2018-12-23T23:10:00.166Z,60.55
2018-12-23T23:12:29.680Z,60.53
2018-12-23T23:14:59.181Z,60.62
2018-12-23T23:17:28.679Z,60.56
2018-12-23T23:19:58.117Z,60.54
2018-12-23T23:22:27.540Z,60.61
2018-12-23T23:24:56.995Z,60.70
2018-12-23T23:27:26.475Z,60.75
2018-12-23T23:29:55.905Z,60.80
2018-12-23T23:32:25.371Z,60.83
2018-12-23T23:34:54.863Z,60.85
2018-12-23T23:37:24.338Z,60.65
2018-12-23T23:39:53.775Z,60.67
2018-12-23T23:44:58.419Z,60.43
2018-12-23T23:47:28.013Z,60.52
2018-12-23T23:49:57.462Z,60.46
2018-12-23T23:52:26.991Z,60.45
2018-12-23T23:54:56.546Z,60.41
2018-12-23T23:57:25.960Z,60.00
2018-12-23T23:59:55.439Z,59.87
